Terminal Aerodrome Forecast
Issued by NWS

Home | Current Version | Previous Version | Text Only | Print | Product List | Glossary On
Versions: 1 2 3 4 5 6 7 8 9 10 11 12 13 14
839
FTUS43 KAPX 242321
TAFAPN
TAF
KAPN 242321Z 2500/2524 01005KT 3SM -RA BR OVC008
      TEMPO 2500/2501 SCT008 OVC040
     FM250200 02005KT 5SM -RAPL OVC008
     FM250400 02005KT P6SM VCSH BKN008
     FM250800 05007KT P6SM BKN015
     FM251300 06012G19KT P6SM BKN028
     FM251900 09013G20KT P6SM BKN035=

USA.gov is the U.S. government's official web portal to all federal, state and local government web resources and services.